Time;durP1;ratioP1;P1;durP2;ratioP2;P2;SDS_P1;SDS_P2;PMS_P1;PMS_P2;Temp;Humidity;BMP_temperature;BMP_pressure;BME280_temperature;BME280_humidity;BME280_pressure;Samples;Min_cycle;Max_cycle;Signal;HPM_P1;HPM_P2
2023/04/12 00:01:49;;;;;;;6.95;1.02;;;6.70;99.90;;;;;;5024314;28;20045;-65
2023/04/12 00:04:15;;;;;;;5.68;0.80;;;6.70;99.90;;;;;;5020480;28;20208;-64
2023/04/12 00:06:41;;;;;;;7.32;1.10;;;6.70;99.90;;;;;;5018819;28;20218;-63
2023/04/12 00:09:07;;;;;;;6.25;0.70;;;6.60;99.90;;;;;;5017698;28;20122;-63
2023/04/12 00:11:34;;;;;;;6.03;1.10;;;6.60;99.90;;;;;;4999011;28;20239;-64
2023/04/12 00:14:00;;;;;;;3.92;0.60;;;6.50;99.90;;;;;;5018659;28;20049;-63
2023/04/12 00:16:26;;;;;;;8.82;0.90;;;6.50;99.90;;;;;;5018826;28;20180;-64
2023/04/12 00:18:51;;;;;;;9.85;0.80;;;6.50;99.90;;;;;;5018914;28;20106;-63
2023/04/12 00:21:18;;;;;;;8.60;0.90;;;6.60;99.90;;;;;;5020543;28;20337;-64
2023/04/12 00:23:48;;;;;;;5.03;0.90;;;6.60;99.90;;;;;;5019564;28;20518;-64
2023/04/12 00:26:14;;;;;;;5.60;0.75;;;6.60;99.90;;;;;;5019533;28;20049;-63
2023/04/12 00:28:41;;;;;;;6.13;0.50;;;6.60;99.90;;;;;;5017851;28;20501;-64
2023/04/12 00:31:07;;;;;;;7.35;1.00;;;6.60;99.90;;;;;;5018294;28;20033;-63
2023/04/12 00:33:36;;;;;;;6.53;0.60;;;6.60;99.90;;;;;;5019398;28;20057;-64
2023/04/12 00:36:02;;;;;;;9.35;0.82;;;6.60;99.90;;;;;;5017955;28;20495;-64
2023/04/12 00:38:28;;;;;;;7.70;0.77;;;6.70;99.90;;;;;;5028095;28;20084;-65
2023/04/12 00:40:54;;;;;;;8.80;0.80;;;6.80;99.90;;;;;;5003585;28;20399;-65
2023/04/12 00:43:20;;;;;;;6.50;0.43;;;6.90;99.90;;;;;;5022845;28;20411;-64
2023/04/12 00:45:46;;;;;;;6.43;0.85;;;6.90;99.90;;;;;;5020049;28;20052;-64
2023/04/12 00:48:12;;;;;;;8.43;0.55;;;6.90;99.90;;;;;;5019931;28;20045;-63
2023/04/12 00:50:40;;;;;;;8.50;0.80;;;6.90;99.90;;;;;;5016513;28;20152;-64
2023/04/12 00:53:08;;;;;;;4.50;0.65;;;7.00;99.90;;;;;;5018415;28;20099;-63
2023/04/12 00:55:34;;;;;;;5.07;0.65;;;6.90;99.90;;;;;;5017241;28;20474;-64
2023/04/12 00:58:00;;;;;;;7.32;0.70;;;7.00;99.90;;;;;;5011344;28;20069;-64
2023/04/12 01:00:26;;;;;;;9.93;1.10;;;7.00;99.90;;;;;;5016753;28;20045;-63
2023/04/12 01:02:52;;;;;;;5.55;0.60;;;7.00;99.90;;;;;;5003392;28;20034;-64
2023/04/12 01:05:22;;;;;;;4.78;0.80;;;7.00;99.90;;;;;;5021405;28;20322;-63
2023/04/12 01:07:57;;;;;;;9.32;1.10;;;7.00;99.90;;;;;;5020231;28;20182;-63
2023/04/12 01:10:44;;;;;;;7.70;0.80;;;7.00;99.90;;;;;;5019104;28;20106;-64
2023/04/12 01:13:26;;;;;;;5.28;0.90;;;7.00;99.90;;;;;;5034846;28;20179;-63
2023/04/12 01:16:11;;;;;;;7.28;1.08;;;7.10;99.90;;;;;;5011953;28;20081;-64
2023/04/12 01:18:44;;;;;;;5.43;0.70;;;7.10;99.90;;;;;;5019126;28;20174;-64
2023/04/12 01:21:17;;;;;;;6.15;0.75;;;7.10;99.90;;;;;;4996412;28;20432;-63
2023/04/12 01:23:57;;;;;;;8.50;0.85;;;7.10;99.90;;;;;;5038418;28;20120;-64
2023/04/12 01:26:33;;;;;;;7.05;0.80;;;7.10;99.90;;;;;;5016700;28;20531;-63
2023/04/12 01:29:03;;;;;;;12.40;1.77;;;7.10;99.90;;;;;;5020142;28;20130;-64
2023/04/12 01:31:31;;;;;;;9.85;1.10;;;7.10;99.90;;;;;;5016034;28;20433;-64
2023/04/12 01:33:58;;;;;;;7.05;0.90;;;7.20;99.90;;;;;;5017438;28;20045;-64
2023/04/12 01:36:26;;;;;;;8.43;1.25;;;7.20;99.90;;;;;;5005913;28;20043;-64
2023/04/12 01:38:53;;;;;;;7.60;0.90;;;7.20;99.90;;;;;;5026236;28;20125;-64
2023/04/12 01:41:20;;;;;;;6.45;1.20;;;7.10;99.90;;;;;;5017719;28;20037;-65
2023/04/12 01:43:46;;;;;;;8.93;1.05;;;7.10;99.90;;;;;;5016953;28;20041;-64
2023/04/12 01:46:15;;;;;;;5.18;0.90;;;7.20;99.90;;;;;;5016444;28;20356;-64
2023/04/12 01:48:49;;;;;;;8.85;1.15;;;7.20;99.90;;;;;;5027790;28;20271;-65
2023/04/12 01:51:39;;;;;;;6.80;1.30;;;7.20;99.90;;;;;;5017905;28;20037;-65
2023/04/12 01:54:16;;;;;;;8.57;1.20;;;7.20;99.90;;;;;;5018737;28;20516;-63
2023/04/12 01:56:49;;;;;;;7.20;0.70;;;7.20;99.90;;;;;;5017756;28;20099;-63
2023/04/12 01:59:16;;;;;;;;;;;7.20;99.90;;;;;;5020018;28;20052;-65
2023/04/12 02:01:43;;;;;;;6.55;0.77;;;7.10;99.90;;;;;;5018676;28;20389;-63
2023/04/12 02:04:09;;;;;;;7.55;1.20;;;7.20;99.90;;;;;;5027526;28;20041;-64
2023/04/12 02:06:36;;;;;;;6.82;1.20;;;7.30;99.90;;;;;;5016945;28;20717;-63
2023/04/12 02:09:05;;;;;;;7.13;0.88;;;7.20;99.90;;;;;;5018841;28;20076;-64
2023/04/12 02:11:30;;;;;;;8.70;1.58;;;7.30;99.90;;;;;;5034589;28;20406;-65
2023/04/12 02:13:56;;;;;;;10.75;1.52;;;7.30;99.90;;;;;;5016812;28;20045;-64
2023/04/12 02:16:22;;;;;;;8.43;1.50;;;7.30;99.90;;;;;;5026146;28;20055;-64
2023/04/12 02:18:49;;;;;;;3.33;0.77;;;7.40;99.90;;;;;;5028645;28;20506;-64
2023/04/12 02:21:15;;;;;;;10.45;1.35;;;7.40;99.90;;;;;;5011566;28;20071;-63
2023/04/12 02:23:42;;;;;;;8.95;1.42;;;7.50;99.90;;;;;;5016206;28;20053;-64
2023/04/12 02:26:10;;;;;;;7.70;1.08;;;7.50;99.90;;;;;;5014673;28;20055;-65
2023/04/12 02:28:38;;;;;;;9.40;1.45;;;7.50;99.90;;;;;;5015006;28;20040;-65
2023/04/12 02:31:07;;;;;;;8.27;1.45;;;7.50;99.90;;;;;;5016770;28;20041;-63
2023/04/12 02:33:33;;;;;;;10.98;1.50;;;7.50;99.90;;;;;;5017114;28;20150;-67
2023/04/12 02:36:03;;;;;;;8.45;1.27;;;7.50;99.90;;;;;;5016571;28;20458;-63
2023/04/12 02:38:29;;;;;;;10.07;1.63;;;7.40;99.90;;;;;;5014509;28;20033;-65
2023/04/12 02:40:55;;;;;;;10.50;1.60;;;7.50;99.90;;;;;;5016425;28;20040;-64
2023/04/12 02:43:21;;;;;;;6.53;1.73;;;7.50;99.90;;;;;;5014727;28;20037;-64
2023/04/12 02:45:47;;;;;;;9.27;1.52;;;7.40;99.90;;;;;;5017012;28;20452;-64
2023/04/12 02:48:13;;;;;;;10.65;1.58;;;7.40;99.90;;;;;;5017966;28;20270;-64
2023/04/12 02:50:39;;;;;;;10.35;2.22;;;7.40;99.90;;;;;;4995935;28;20187;-63
2023/04/12 02:53:04;;;;;;;6.82;1.33;;;7.40;99.90;;;;;;5009597;28;20044;-64
2023/04/12 02:55:30;;;;;;;7.20;1.67;;;7.50;99.90;;;;;;5010550;28;20075;-64
2023/04/12 02:57:56;;;;;;;9.80;1.83;;;7.50;99.90;;;;;;5016202;28;20033;-64
2023/04/12 03:00:22;;;;;;;10.93;1.90;;;7.50;99.90;;;;;;5016854;28;20056;-64
2023/04/12 03:02:52;;;;;;;10.60;1.83;;;7.50;99.90;;;;;;5011114;28;20334;-65
2023/04/12 03:05:19;;;;;;;9.82;1.95;;;7.60;99.90;;;;;;5017900;28;20278;-65
2023/04/12 03:07:45;;;;;;;12.57;1.90;;;7.60;99.90;;;;;;5010432;28;20064;-64
2023/04/12 03:10:11;;;;;;;10.15;1.75;;;7.60;99.90;;;;;;5016103;28;20037;-63
2023/04/12 03:12:37;;;;;;;7.32;1.98;;;7.50;99.90;;;;;;5019138;28;20116;-64
2023/04/12 03:15:03;;;;;;;6.13;1.15;;;7.60;99.90;;;;;;5002358;28;20157;-64
2023/04/12 03:17:29;;;;;;;10.30;1.80;;;7.50;99.90;;;;;;5002168;28;20278;-64
2023/04/12 03:19:57;;;;;;;8.77;1.60;;;7.50;99.90;;;;;;5019589;28;20407;-63
2023/04/12 03:22:24;;;;;;;8.15;1.70;;;7.50;99.90;;;;;;5012960;28;20059;-64
2023/04/12 03:24:50;;;;;;;7.45;2.17;;;7.50;99.90;;;;;;5020718;28;20174;-65
2023/04/12 03:27:16;;;;;;;8.73;2.35;;;7.50;99.90;;;;;;5020483;28;20045;-64
2023/04/12 03:29:42;;;;;;;11.32;2.17;;;7.50;99.90;;;;;;5021738;28;20448;-64
2023/04/12 03:32:07;;;;;;;10.10;2.05;;;7.40;99.90;;;;;;5020546;28;20046;-65
2023/04/12 03:34:34;;;;;;;9.68;2.13;;;7.40;99.90;;;;;;5022319;28;20041;-64
2023/04/12 03:37:00;;;;;;;9.48;2.28;;;7.40;99.90;;;;;;5020364;28;20080;-64
2023/04/12 03:39:26;;;;;;;10.68;2.28;;;7.40;99.90;;;;;;5023670;28;20059;-64
2023/04/12 03:41:52;;;;;;;8.00;2.30;;;7.50;99.90;;;;;;5038692;28;20486;-62
2023/04/12 03:44:18;;;;;;;9.85;1.92;;;7.50;99.90;;;;;;5023274;28;21448;-64
2023/04/12 03:46:44;;;;;;;10.40;2.17;;;7.50;99.90;;;;;;5017714;28;20044;-63
2023/04/12 03:49:10;;;;;;;8.07;2.25;;;7.50;99.90;;;;;;5036011;28;20037;-63
2023/04/12 03:51:41;;;;;;;7.53;1.95;;;7.50;99.90;;;;;;5019943;28;20103;-64
2023/04/12 03:54:08;;;;;;;8.63;1.83;;;7.50;99.90;;;;;;5019477;28;20120;-65
2023/04/12 03:56:34;;;;;;;10.75;2.42;;;7.50;99.90;;;;;;5020734;28;20033;-62
2023/04/12 03:59:00;;;;;;;8.35;2.22;;;7.50;99.90;;;;;;5019630;28;20025;-64
2023/04/12 04:01:26;;;;;;;8.65;2.10;;;7.50;99.90;;;;;;5020920;28;20044;-63
2023/04/12 04:03:52;;;;;;;10.02;2.38;;;7.60;1.00;;;;;;5018898;28;20244;-64
2023/04/12 04:06:18;;;;;;;8.50;2.15;;;7.60;99.90;;;;;;5021478;28;20291;-64
2023/04/12 04:08:43;;;;;;;9.68;2.28;;;7.60;99.90;;;;;;5013958;28;20280;-64
2023/04/12 04:11:11;;;;;;;6.97;1.75;;;7.60;1.00;;;;;;5019784;28;20220;-64
2023/04/12 04:13:36;;;;;;;9.98;2.25;;;7.60;99.90;;;;;;5019053;28;20379;-64
2023/04/12 04:16:08;;;;;;;9.15;2.22;;;7.60;99.90;;;;;;5016452;28;20248;-63
2023/04/12 04:18:34;;;;;;;13.02;2.03;;;7.60;99.90;;;;;;5020894;28;20055;-64
2023/04/12 04:21:00;;;;;;;8.80;1.88;;;7.60;1.00;;;;;;5021439;28;20123;-64
2023/04/12 04:23:27;;;;;;;7.40;1.55;;;7.60;1.00;;;;;;5015928;28;20727;-64
2023/04/12 04:25:54;;;;;;;8.38;1.95;;;7.50;1.00;;;;;;5011978;28;20045;-64
2023/04/12 04:28:19;;;;;;;8.88;2.60;;;7.50;1.00;;;;;;5033352;28;20049;-64
2023/04/12 04:30:45;;;;;;;9.02;1.70;;;7.50;1.00;;;;;;5017812;28;20506;-63
2023/04/12 04:33:11;;;;;;;8.77;2.20;;;7.50;1.00;;;;;;5019786;28;20041;-65
2023/04/12 04:35:44;;;;;;;8.50;2.60;;;7.50;1.00;;;;;;5011453;28;20057;-64
2023/04/12 04:38:10;;;;;;;14.05;2.72;;;7.40;1.00;;;;;;5020442;28;20030;-64
2023/04/12 04:40:37;;;;;;;10.90;2.50;;;7.40;1.00;;;;;;5017743;28;20277;-64
2023/04/12 04:43:03;;;;;;;7.72;2.40;;;7.40;1.00;;;;;;5017394;28;20529;-64
2023/04/12 04:45:29;;;;;;;9.10;2.47;;;7.30;1.00;;;;;;5016831;28;20041;-64
2023/04/12 04:47:55;;;;;;;7.85;1.88;;;7.30;1.00;;;;;;5037178;28;20049;-63
2023/04/12 04:50:22;;;;;;;7.40;1.88;;;7.30;1.00;;;;;;5028161;28;20041;-64
2023/04/12 04:52:49;;;;;;;9.82;2.50;;;7.30;1.00;;;;;;5036473;28;20070;-64
2023/04/12 04:55:19;;;;;;;8.85;2.47;;;7.20;1.00;;;;;;5021765;28;20132;-64
2023/04/12 04:57:45;;;;;;;8.68;2.50;;;7.20;1.00;;;;;;5027931;28;20494;-65
2023/04/12 05:00:15;;;;;;;7.55;2.47;;;7.10;34.70;;;;;;5018967;28;20033;-65
2023/04/12 05:02:44;;;;;;;12.38;2.42;;;7.10;72.30;;;;;;5012417;28;20041;-63
2023/04/12 05:05:14;;;;;;;9.15;2.30;;;7.00;83.20;;;;;;5019877;28;20075;-64
2023/04/12 05:07:42;;;;;;;9.95;2.70;;;7.00;99.90;;;;;;5035918;28;20570;-64
2023/04/12 05:10:09;;;;;;;8.25;2.15;;;7.10;99.90;;;;;;5017017;28;20033;-63
2023/04/12 05:12:35;;;;;;;12.15;1.80;;;7.00;99.90;;;;;;5012506;28;20084;-64
2023/04/12 05:15:01;;;;;;;10.32;2.22;;;7.00;99.90;;;;;;5011148;28;20366;-65
2023/04/12 05:17:27;;;;;;;8.25;2.10;;;7.10;99.90;;;;;;5017477;28;20045;-64
2023/04/12 05:19:53;;;;;;;7.85;2.03;;;6.90;99.90;;;;;;5016128;28;20435;-64
2023/04/12 05:22:20;;;;;;;6.68;1.85;;;7.10;99.90;;;;;;5016639;28;20049;-63
2023/04/12 05:24:47;;;;;;;8.25;1.55;;;7.10;99.90;;;;;;5017334;28;20045;-64
2023/04/12 05:27:15;;;;;;;10.48;2.08;;;6.90;99.90;;;;;;5020186;28;20337;-64
2023/04/12 05:29:43;;;;;;;7.38;1.60;;;7.10;99.90;;;;;;5035618;28;20162;-64
2023/04/12 05:32:09;;;;;;;7.18;1.60;;;7.00;99.90;;;;;;5015923;28;20040;-64
2023/04/12 05:34:36;;;;;;;9.40;2.17;;;7.00;99.90;;;;;;5017398;28;20049;-64
2023/04/12 05:37:02;;;;;;;4.90;1.52;;;7.00;99.90;;;;;;5015270;28;20033;-65
2023/04/12 05:39:29;;;;;;;6.25;1.95;;;6.90;99.90;;;;;;5017650;28;20569;-65
2023/04/12 05:41:54;;;;;;;9.00;1.48;;;7.00;99.90;;;;;;5025602;28;20046;-63
2023/04/12 05:44:20;;;;;;;8.68;2.72;;;7.00;99.90;;;;;;5005646;28;20037;-64
2023/04/12 05:46:46;;;;;;;9.95;2.25;;;7.00;99.90;;;;;;5026572;28;20531;-64
2023/04/12 05:49:12;;;;;;;8.55;1.88;;;7.10;99.90;;;;;;5017352;28;20038;-64
2023/04/12 05:51:38;;;;;;;10.95;2.47;;;7.20;99.90;;;;;;5035475;28;20468;-65
2023/04/12 05:54:06;;;;;;;10.30;2.10;;;7.10;99.90;;;;;;5016538;28;20152;-64
2023/04/12 05:56:32;;;;;;;5.90;1.80;;;7.20;99.90;;;;;;4996522;28;20052;-64
2023/04/12 05:58:58;;;;;;;6.93;1.13;;;7.00;99.90;;;;;;5016300;28;20427;-65
2023/04/12 06:01:29;;;;;;;8.38;1.90;;;7.10;99.90;;;;;;5022726;28;20053;-64
2023/04/12 06:03:58;;;;;;;6.72;1.83;;;7.10;99.90;;;;;;5032032;28;20052;-65
2023/04/12 06:06:29;;;;;;;10.25;1.70;;;7.10;99.90;;;;;;5018315;28;20145;-64
2023/04/12 06:09:01;;;;;;;5.78;1.70;;;7.20;99.90;;;;;;5001734;28;20524;-64
2023/04/12 06:11:27;;;;;;;9.05;2.10;;;7.00;99.90;;;;;;5018441;28;20049;-65
2023/04/12 06:13:53;;;;;;;7.10;1.70;;;7.00;99.90;;;;;;5018455;28;20037;-64
2023/04/12 06:16:19;;;;;;;6.93;2.05;;;7.10;99.90;;;;;;5016240;28;20187;-64
2023/04/12 06:18:45;;;;;;;8.10;2.17;;;7.20;99.90;;;;;;5017457;28;20186;-65
2023/04/12 06:21:11;;;;;;;6.68;1.77;;;6.90;99.90;;;;;;5013344;28;20069;-64
2023/04/12 06:23:37;;;;;;;7.65;1.65;;;7.10;99.90;;;;;;5015247;28;20142;-64
2023/04/12 06:26:02;;;;;;;7.47;1.67;;;6.90;99.90;;;;;;5012182;28;20376;-63
2023/04/12 06:28:28;;;;;;;7.65;1.58;;;7.10;99.90;;;;;;5019107;28;20061;-66
2023/04/12 06:30:54;;;;;;;7.35;1.90;;;7.00;1.00;;;;;;5018067;28;20045;-65
2023/04/12 06:33:21;;;;;;;7.85;1.98;;;7.00;1.00;;;;;;5015576;28;20225;-65
2023/04/12 06:35:48;;;;;;;8.68;1.92;;;7.00;1.00;;;;;;5016147;28;20037;-65
2023/04/12 06:38:13;;;;;;;6.53;1.95;;;6.90;1.00;;;;;;5013837;28;20466;-65
2023/04/12 06:40:39;;;;;;;8.23;1.63;;;7.10;1.00;;;;;;5015044;28;20041;-65
2023/04/12 06:43:05;;;;;;;4.65;1.38;;;7.00;1.00;;;;;;5018539;28;20044;-64
2023/04/12 06:45:31;;;;;;;7.53;1.40;;;7.00;1.00;;;;;;5009562;28;20264;-65
2023/04/12 06:47:57;;;;;;;8.13;2.10;;;7.20;1.00;;;;;;5003957;28;20435;-65
2023/04/12 06:50:23;;;;;;;5.07;1.45;;;7.30;1.00;;;;;;5014502;28;20041;-65
2023/04/12 06:52:49;;;;;;;5.43;1.27;;;7.30;1.00;;;;;;5006931;28;20645;-65
2023/04/12 06:55:15;;;;;;;7.22;2.00;;;6.90;7.80;;;;;;5014869;28;20044;-65
2023/04/12 06:57:42;;;;;;;7.82;1.73;;;7.10;23.90;;;;;;5002000;28;20551;-65
2023/04/12 07:00:08;;;;;;;6.68;1.90;;;7.00;73.20;;;;;;5014726;28;20317;-66
2023/04/12 07:02:34;;;;;;;4.93;1.70;;;6.90;93.90;;;;;;4988312;28;20055;-66
2023/04/12 07:04:59;;;;;;;10.02;2.25;;;7.10;99.90;;;;;;5009331;28;21098;-66
2023/04/12 07:07:25;;;;;;;8.95;1.95;;;7.00;99.90;;;;;;5015811;28;20042;-65
2023/04/12 07:09:51;;;;;;;7.88;2.22;;;7.30;99.90;;;;;;4998925;28;20068;-66
2023/04/12 07:12:18;;;;;;;7.30;1.75;;;7.00;99.90;;;;;;5013380;28;20116;-66
2023/04/12 07:14:44;;;;;;;6.25;1.90;;;7.00;99.90;;;;;;5013879;28;20205;-66
2023/04/12 07:17:09;;;;;;;5.53;1.80;;;7.20;99.90;;;;;;5013252;28;20259;-65
2023/04/12 07:19:35;;;;;;;5.97;2.28;;;7.00;99.90;;;;;;5019088;28;20534;-66
2023/04/12 07:22:01;;;;;;;6.60;1.70;;;7.20;99.90;;;;;;5016241;28;20322;-66
2023/04/12 07:24:27;;;;;;;8.68;1.80;;;7.10;99.90;;;;;;5022912;28;20871;-66
2023/04/12 07:26:56;;;;;;;9.27;1.75;;;7.20;99.90;;;;;;4996967;28;20491;-65
2023/04/12 07:29:22;;;;;;;6.10;1.73;;;7.40;99.90;;;;;;5034037;28;20048;-66
2023/04/12 07:31:47;;;;;;;6.00;1.80;;;7.40;99.90;;;;;;5016331;28;20048;-66
2023/04/12 07:34:13;;;;;;;6.43;1.70;;;7.50;99.90;;;;;;4997133;28;20052;-67
2023/04/12 07:36:39;;;;;;;6.05;2.22;;;7.40;99.90;;;;;;5014368;28;20695;-66
2023/04/12 07:39:05;;;;;;;7.63;1.95;;;7.10;99.90;;;;;;5017052;28;20107;-65
2023/04/12 07:41:30;;;;;;;8.80;2.47;;;7.00;99.90;;;;;;5012355;28;20544;-66
2023/04/12 07:43:56;;;;;;;7.18;2.17;;;7.40;99.90;;;;;;5020476;28;20071;-65
2023/04/12 07:46:21;;;;;;;8.35;2.13;;;7.40;99.90;;;;;;5020548;28;20529;-66
2023/04/12 07:48:47;;;;;;;8.82;2.45;;;7.20;99.90;;;;;;4997491;28;20047;-65
2023/04/12 07:51:13;;;;;;;5.57;2.00;;;7.50;99.90;;;;;;4993344;28;20533;-65
2023/04/12 07:53:40;;;;;;;5.45;2.33;;;6.90;99.90;;;;;;5016556;28;20037;-66
2023/04/12 07:56:07;;;;;;;5.32;2.00;;;7.20;99.90;;;;;;5013651;28;20120;-66
2023/04/12 07:58:33;;;;;;;7.90;2.17;;;7.20;99.90;;;;;;5020453;28;20064;-65
2023/04/12 08:00:59;;;;;;;10.00;2.65;;;6.90;99.90;;;;;;5019250;28;20151;-66
2023/04/12 08:03:25;;;;;;;6.20;1.90;;;7.50;99.90;;;;;;5009039;28;20038;-65
2023/04/12 08:05:54;;;;;;;4.82;2.08;;;6.90;99.90;;;;;;5018971;28;20399;-65
2023/04/12 08:08:21;;;;;;;6.63;1.95;;;7.00;99.90;;;;;;5018991;28;20048;-64
2023/04/12 08:10:47;;;;;;;4.45;2.08;;;7.20;99.90;;;;;;5017804;28;20342;-64
2023/04/12 08:13:13;;;;;;;6.38;2.22;;;7.50;99.90;;;;;;5019639;28;20037;-64
2023/04/12 08:15:40;;;;;;;8.35;2.83;;;7.30;99.90;;;;;;5032197;28;20073;-64
2023/04/12 08:18:05;;;;;;;8.13;2.33;;;7.30;99.90;;;;;;5020523;28;20498;-64
2023/04/12 08:20:31;;;;;;;7.10;2.30;;;7.30;99.90;;;;;;5018697;28;20036;-64
2023/04/12 08:22:57;;;;;;;5.68;2.25;;;7.10;99.90;;;;;;5015489;28;20053;-64
2023/04/12 08:25:23;;;;;;;9.57;3.28;;;7.60;99.90;;;;;;5018835;28;20057;-65
2023/04/12 08:27:50;;;;;;;9.40;2.53;;;7.00;99.90;;;;;;5028052;28;20044;-64
2023/04/12 08:30:16;;;;;;;5.13;2.55;;;7.30;99.90;;;;;;5018058;28;20029;-64
2023/04/12 08:32:42;;;;;;;9.90;2.75;;;7.70;99.90;;;;;;5018134;28;20286;-65
2023/04/12 08:35:08;;;;;;;7.47;2.35;;;7.10;99.90;;;;;;4999254;28;20037;-65
2023/04/12 08:37:34;;;;;;;6.15;3.42;;;7.30;99.90;;;;;;5029205;28;20067;-64
2023/04/12 08:40:05;;;;;;;6.78;3.10;;;7.60;99.90;;;;;;5016327;28;20052;-65
2023/04/12 08:42:38;;;;;;;5.30;2.90;;;7.50;99.90;;;;;;5035053;28;20041;-65
2023/04/12 08:45:09;;;;;;;5.00;3.20;;;7.60;99.90;;;;;;5036471;28;20045;-65
2023/04/12 08:47:40;;;;;;;5.15;2.90;;;7.80;99.90;;;;;;5018430;28;20755;-66
2023/04/12 08:50:08;;;;;;;5.32;2.75;;;7.80;99.90;;;;;;5018313;28;20078;-65
2023/04/12 08:52:35;;;;;;;6.72;3.33;;;7.50;99.90;;;;;;5028710;28;20268;-67
2023/04/12 08:55:05;;;;;;;7.10;3.50;;;7.80;99.90;;;;;;5037191;28;20049;-65
2023/04/12 08:57:31;;;;;;;8.63;3.50;;;7.90;99.90;;;;;;5017819;28;20033;-67
2023/04/12 09:00:00;;;;;;;7.15;2.78;;;7.90;99.90;;;;;;5018059;28;20072;-66
2023/04/12 09:02:26;;;;;;;8.23;3.05;;;7.40;99.90;;;;;;5018187;28;20502;-66
2023/04/12 09:04:53;;;;;;;6.00;3.47;;;7.90;99.90;;;;;;5000999;28;20128;-66
2023/04/12 09:07:22;;;;;;;4.75;3.40;;;7.30;99.90;;;;;;5033087;28;20187;-65
2023/04/12 09:09:49;;;;;;;7.07;3.95;;;7.40;99.90;;;;;;5015189;28;20119;-65
2023/04/12 09:12:15;;;;;;;7.50;3.60;;;7.70;99.90;;;;;;5015192;28;20454;-66
2023/04/12 09:14:44;;;;;;;4.28;3.05;;;7.90;99.90;;;;;;5005631;28;20653;-66
2023/04/12 09:17:24;;;;;;;5.95;3.53;;;7.80;99.90;;;;;;5018570;28;20051;-66
2023/04/12 09:19:50;;;;;;;6.10;3.22;;;8.00;99.90;;;;;;5037714;28;20048;-66
2023/04/12 09:22:16;;;;;;;6.60;4.18;;;7.80;99.90;;;;;;5027980;28;20823;-66
2023/04/12 09:24:48;;;;;;;7.82;3.80;;;8.10;99.90;;;;;;5016765;28;20322;-66
2023/04/12 09:27:14;;;;;;;7.00;3.97;;;7.90;99.90;;;;;;5026190;28;20052;-66
2023/04/12 09:29:40;;;;;;;5.95;4.22;;;7.80;99.90;;;;;;5015526;28;20158;-66
2023/04/12 09:32:08;;;;;;;7.95;4.88;;;7.90;99.90;;;;;;5007584;28;20073;-66
2023/04/12 09:34:35;;;;;;;5.80;3.80;;;7.70;99.90;;;;;;5017115;28;20053;-64
2023/04/12 09:37:14;;;;;;;5.95;4.22;;;7.80;99.90;;;;;;5015345;28;20048;-67
2023/04/12 09:39:41;;;;;;;8.27;4.65;;;8.00;99.90;;;;;;5037605;28;20044;-66
2023/04/12 09:42:08;;;;;;;5.88;3.90;;;7.80;99.90;;;;;;5017483;28;20041;-66
2023/04/12 09:44:34;;;;;;;4.97;4.35;;;8.10;99.90;;;;;;5017540;28;20148;-66
2023/04/12 09:47:01;;;;;;;5.93;4.22;;;8.20;99.90;;;;;;5027412;28;20264;-65
2023/04/12 09:49:40;;;;;;;5.40;4.43;;;8.20;99.90;;;;;;5005985;28;20033;-65
2023/04/12 09:52:09;;;;;;;7.13;4.30;;;7.90;99.90;;;;;;5009825;28;20033;-65
2023/04/12 09:54:38;;;;;;;4.68;4.03;;;8.00;99.90;;;;;;5021335;28;20746;-65
2023/04/12 09:57:07;;;;;;;6.60;5.05;;;8.40;99.90;;;;;;5015081;28;20325;-65
2023/04/12 09:59:37;;;;;;;5.68;4.40;;;8.40;99.90;;;;;;5015547;28;20040;-67
2023/04/12 10:02:14;;;;;;;5.78;4.45;;;8.10;99.90;;;;;;5028228;28;20320;-67
2023/04/12 10:04:41;;;;;;;4.57;3.90;;;8.30;99.90;;;;;;5014365;28;20116;-66
2023/04/12 10:07:07;;;;;;;5.05;3.95;;;8.20;99.90;;;;;;5017349;28;20033;-66
2023/04/12 10:09:34;;;;;;;5.50;3.70;;;8.30;99.90;;;;;;5018985;28;20074;-65
2023/04/12 10:12:02;;;;;;;5.93;3.83;;;8.50;99.90;;;;;;5010765;28;20068;-65
2023/04/12 10:14:29;;;;;;;4.53;3.10;;;8.80;99.90;;;;;;5019256;28;20517;-63
2023/04/12 10:17:00;;;;;;;4.22;3.47;;;8.60;99.90;;;;;;5016589;28;20226;-64
2023/04/12 10:19:29;;;;;;;5.75;3.55;;;8.70;99.90;;;;;;5015487;28;20038;-64
2023/04/12 10:21:56;;;;;;;4.93;2.85;;;9.00;99.90;;;;;;5016116;28;20045;-63
2023/04/12 10:24:23;;;;;;;5.43;3.72;;;9.10;99.90;;;;;;5016536;28;20034;-64
2023/04/12 10:26:54;;;;;;;4.03;2.88;;;9.30;99.90;;;;;;5016027;28;20041;-65
2023/04/12 10:29:27;;;;;;;3.35;3.05;;;9.40;99.90;;;;;;5034096;28;20041;-64
2023/04/12 10:32:17;;;;;;;3.35;3.05;;;9.40;99.90;;;;;;5030454;28;20514;-63
2023/04/12 10:34:43;;;;;;;3.30;3.00;;;9.80;99.90;;;;;;5032873;28;20041;-64
2023/04/12 10:37:09;;;;;;;4.00;3.28;;;9.70;99.90;;;;;;5010543;28;20064;-63
2023/04/12 10:39:43;;;;;;;4.10;3.10;;;9.70;99.90;;;;;;5034091;28;20056;-64
2023/04/12 10:42:25;;;;;;;4.50;2.38;;;10.20;99.90;;;;;;5030841;28;20033;-64
2023/04/12 10:44:56;;;;;;;2.83;2.25;;;10.20;99.90;;;;;;5014428;28;20053;-63
2023/04/12 10:47:48;;;;;;;4.63;3.10;;;10.40;99.90;;;;;;5016078;28;20152;-63
2023/04/12 10:50:25;;;;;;;3.30;2.97;;;10.30;99.90;;;;;;5007518;28;20118;-63
2023/04/12 10:53:12;;;;;;;3.60;2.55;;;10.40;99.90;;;;;;5043051;28;20055;-64
2023/04/12 10:55:43;;;;;;;4.45;2.40;;;10.60;99.90;;;;;;5010496;28;20505;-64
2023/04/12 10:58:09;;;;;;;2.47;1.88;;;10.80;99.90;;;;;;5004533;28;20300;-64
2023/04/12 11:00:57;;;;;;;3.92;1.90;;;11.40;99.90;;;;;;5009817;28;20050;-63
2023/04/12 11:03:24;;;;;;;3.75;2.10;;;11.70;99.90;;;;;;5015853;28;20065;-63
2023/04/12 11:06:03;;;;;;;2.63;1.88;;;12.10;99.90;;;;;;4994455;28;20052;-65
2023/04/12 11:08:30;;;;;;;2.38;1.60;;;12.20;99.90;;;;;;5024528;28;20041;-64
2023/04/12 11:11:02;;;;;;;3.53;1.60;;;12.10;99.90;;;;;;5015503;28;20041;-63
2023/04/12 11:13:33;;;;;;;3.25;1.42;;;12.00;99.90;;;;;;5013362;28;20117;-64
2023/04/12 11:16:02;;;;;;;4.07;1.50;;;12.00;99.90;;;;;;5024849;28;20045;-64
2023/04/12 11:18:28;;;;;;;3.70;1.63;;;12.30;99.90;;;;;;5015162;28;20099;-64
2023/04/12 11:20:56;;;;;;;4.10;1.90;;;12.30;99.90;;;;;;5026039;28;20046;-64
2023/04/12 11:23:23;;;;;;;2.72;1.58;;;12.40;99.90;;;;;;5016448;28;20107;-65
2023/04/12 11:25:52;;;;;;;5.53;2.10;;;12.30;99.90;;;;;;5015812;28;20313;-65
2023/04/12 11:28:18;;;;;;;4.60;1.92;;;12.50;99.90;;;;;;5012580;28;20049;-65
2023/04/12 11:31:03;;;;;;;5.40;1.65;;;13.10;99.90;;;;;;5026200;28;20063;-63
2023/04/12 11:33:37;;;;;;;5.50;1.30;;;14.00;99.90;;;;;;5002515;28;20045;-64
2023/04/12 11:36:13;;;;;;;7.03;1.30;;;14.40;99.90;;;;;;5017871;28;20668;-64
2023/04/12 11:38:39;;;;;;;6.05;1.10;;;14.00;50.60;;;;;;5021279;28;20076;-64
2023/04/12 11:41:07;;;;;;;6.22;1.30;;;14.00;64.10;;;;;;5018762;28;20041;-64
2023/04/12 11:43:34;;;;;;;5.60;1.20;;;14.20;70.40;;;;;;5038114;28;20328;-64
2023/04/12 11:46:00;;;;;;;5.32;1.48;;;14.30;99.90;;;;;;5029030;28;20111;-64
2023/04/12 11:48:27;;;;;;;5.03;1.20;;;14.30;99.90;;;;;;5005914;28;20045;-64
2023/04/12 11:50:53;;;;;;;5.07;0.88;;;14.70;99.90;;;;;;5028713;28;20041;-64
2023/04/12 11:53:21;;;;;;;5.93;1.15;;;14.70;99.90;;;;;;5013666;28;20568;-63
2023/04/12 11:55:53;;;;;;;9.20;1.23;;;14.60;99.90;;;;;;5021101;28;20426;-63
2023/04/12 11:58:23;;;;;;;8.02;1.13;;;14.40;1.00;;;;;;5020471;28;20069;-63
2023/04/12 12:00:49;;;;;;;5.90;1.02;;;13.80;99.90;;;;;;5029866;28;20039;-64
2023/04/12 12:03:15;;;;;;;10.10;1.17;;;13.60;99.90;;;;;;5017583;28;20053;-65
2023/04/12 12:05:41;;;;;;;6.57;1.30;;;13.20;99.90;;;;;;5024292;28;20040;-65
2023/04/12 12:08:08;;;;;;;4.85;1.10;;;13.10;99.90;;;;;;5014297;28;20045;-64
2023/04/12 12:10:35;;;;;;;6.25;1.15;;;13.40;99.90;;;;;;5023998;28;20041;-65
2023/04/12 12:13:01;;;;;;;16.27;1.75;;;13.60;99.90;;;;;;5041710;28;20036;-63
2023/04/12 12:15:33;;;;;;;6.50;0.85;;;13.80;1.00;;;;;;5018745;28;20270;-63
2023/04/12 12:18:01;;;;;;;5.82;0.73;;;13.90;99.90;;;;;;5012621;28;20041;-64
2023/04/12 12:20:26;;;;;;;4.78;0.80;;;14.10;99.90;;;;;;5025414;28;20041;-64
2023/04/12 12:22:52;;;;;;;6.60;0.98;;;14.00;99.90;;;;;;5006896;28;20271;-65
2023/04/12 12:25:18;;;;;;;6.93;1.00;;;13.70;99.90;;;;;;5003757;28;20302;-64
2023/04/12 12:27:47;;;;;;;8.13;1.13;;;13.70;99.90;;;;;;5016390;28;20533;-65
2023/04/12 12:30:16;;;;;;;7.05;0.90;;;13.60;99.90;;;;;;5011079;28;20392;-65
2023/04/12 12:32:43;;;;;;;6.03;0.85;;;13.60;99.90;;;;;;5033411;28;20068;-66
2023/04/12 12:35:11;;;;;;;8.10;1.30;;;13.70;99.90;;;;;;5015626;28;20048;-64
2023/04/12 12:37:46;;;;;;;6.85;0.93;;;13.60;99.90;;;;;;4995801;28;20455;-64
2023/04/12 12:40:12;;;;;;;8.27;0.95;;;13.40;99.90;;;;;;5018139;28;20052;-64
2023/04/12 12:42:53;;;;;;;9.25;1.40;;;13.50;99.90;;;;;;4983597;28;20239;-65
2023/04/12 12:45:21;;;;;;;5.78;0.65;;;13.30;1.00;;;;;;5012578;28;20041;-64
2023/04/12 12:47:57;;;;;;;10.70;1.35;;;13.00;99.90;;;;;;5016829;28;20077;-64
2023/04/12 12:50:28;;;;;;;6.32;0.75;;;12.80;99.90;;;;;;5028859;28;20455;-64
2023/04/12 12:52:54;;;;;;;7.95;0.90;;;12.50;99.90;;;;;;5035358;28;20045;-65
2023/04/12 12:55:21;;;;;;;6.13;1.00;;;12.20;99.90;;;;;;4997183;28;20072;-64
2023/04/12 12:57:48;;;;;;;8.40;1.40;;;12.10;90.10;;;;;;5018273;28;20032;-65
2023/04/12 13:00:15;;;;;;;11.13;1.42;;;11.90;1.00;;;;;;5020221;28;20385;-64